.
WxDataArchive / Data Records for 2014-06-24
2014-06-23 June 2014 2014-06-25

Data Records for Tuesday, 24 June 2014

Time	Temp	Chill	HIndex	Humid	Dewpt	 Wind 	HiWind	WindDir	Rain 	Barom
-----	----	-----	------	-----	-----	------	------	-------	-----	-----
00:00	69.9	69.9	69.9	95	68.4	0	0	---	0.00	29.836 
00:05	69.8	69.8	69.8	95	68.3	0	0	---	0.00	29.836 
00:10	69.6	69.6	69.6	95	68.1	0	0	---	0.00	29.836 
00:15	69.6	69.6	69.6	95	68.1	0	0	---	0.00	29.834 
00:20	69.4	69.4	69.4	95	67.9	0	0	---	0.00	29.834 
00:25	69.4	69.4	69.4	95	67.9	0	0	---	0.00	29.834 
00:30	69.4	69.4	69.4	95	67.9	0	0	---	0.00	29.848 
00:35	69.3	69.3	69.3	95	67.8	0	0	---	0.00	29.848 
00:40	69.1	69.1	69.1	95	67.6	0	0	---	0.00	29.848 
00:45	68.9	68.9	68.9	95	67.4	0	0	---	0.00	29.848 
00:50	68.9	68.9	68.9	95	67.4	0	0	---	0.00	29.848 
00:55	68.8	68.8	68.8	95	67.3	0	0	---	0.00	29.848 
01:00	68.6	68.6	68.6	95	67.1	0	0	---	0.00	29.852 
01:05	68.6	68.6	68.6	95	67.1	0	0	---	0.00	29.852 
01:10	68.6	68.6	68.6	95	67.1	0	0	---	0.00	29.852 
01:15	68.4	68.4	68.4	95	66.9	0	0	---	0.00	29.848 
01:20	68.3	68.3	68.3	95	66.8	0	0	---	0.00	29.848 
01:25	68.3	68.3	68.3	95	66.8	0	0	---	0.00	29.848 
01:30	68.1	68.1	68.1	95	66.6	0	0	---	0.00	29.848 
01:35	68.1	68.1	68.1	95	66.6	0	0	---	0.00	29.848 
01:40	68.1	68.1	68.1	95	66.6	0	0	---	0.00	29.848 
01:45	68.1	68.1	68.1	95	66.6	0	0	---	0.00	29.850 
01:50	68.3	68.3	68.3	95	66.8	0	0	---	0.00	29.850 
01:55	68.3	68.3	68.3	95	66.8	0	0	---	0.00	29.850 
02:00	68.4	68.4	68.4	95	66.9	0	0	---	0.00	29.852 
02:05	68.4	68.4	68.4	95	66.9	0	0	---	0.00	29.852 
02:10	68.6	68.6	68.6	95	67.1	0	0	---	0.00	29.852 
02:15	68.6	68.6	68.6	95	67.1	0	0	---	0.00	29.856 
02:20	68.6	68.6	68.6	95	67.1	0	0	---	0.00	29.856 
02:25	68.6	68.6	68.6	95	67.1	0	0	---	0.00	29.856 
02:30	68.6	68.6	68.6	95	67.1	0	0	---	0.00	29.856 
02:35	68.6	68.6	68.6	95	67.1	0	0	---	0.00	29.856 
02:40	68.6	68.6	68.6	95	67.1	0	0	---	0.00	29.856 
02:45	68.6	68.6	68.6	95	67.1	0	0	---	0.00	29.853 
02:50	68.6	68.6	68.6	95	67.1	0	1	45	0.00	29.853 
02:55	68.6	68.6	68.6	95	67.1	0	1	45	0.00	29.853 
03:00	68.6	68.6	68.6	95	67.1	0	1	45	0.00	29.848 
03:05	68.6	68.6	68.6	95	67.1	0	1	45	0.00	29.848 
03:10	68.6	68.6	68.6	95	67.1	0	0	---	0.00	29.848 
03:15	68.6	68.6	68.6	95	67.1	0	0	---	0.00	29.850 
03:20	68.6	68.6	68.6	95	67.1	0	0	---	0.00	29.850 
03:25	68.6	68.6	68.6	95	67.1	0	0	---	0.00	29.850 
03:30	68.6	68.6	68.6	95	67.1	0	0	---	0.00	29.851 
03:35	68.6	68.6	68.6	95	67.1	0	0	---	0.00	29.851 
03:40	68.6	68.6	68.6	95	67.1	0	0	---	0.00	29.851 
03:45	68.6	68.6	68.6	95	67.1	0	1	45	0.00	29.848 
03:50	68.6	68.6	68.6	95	67.1	0	0	---	0.00	29.848 
03:55	68.6	68.6	68.6	95	67.1	0	0	---	0.00	29.848 
04:00	68.6	68.6	68.6	95	67.1	0	0	---	0.00	29.850 
04:05	68.6	68.6	68.6	95	67.1	0	0	---	0.00	29.850 
04:10	68.6	68.6	68.6	95	67.1	0	0	---	0.00	29.850 
04:15	68.6	68.6	68.6	95	67.1	0	0	---	0.00	29.846 
04:20	68.6	68.6	68.6	95	67.1	0	0	---	0.00	29.846 
04:25	68.6	68.6	68.6	95	67.1	0	0	---	0.00	29.846 
04:30	68.4	68.4	68.4	94	66.6	0	0	---	0.00	29.851 
04:35	68.4	68.4	68.4	94	66.6	0	0	---	0.00	29.851 
04:40	68.4	68.4	68.4	94	66.6	0	0	---	0.00	29.851 
04:45	68.4	68.4	68.4	95	66.9	0	0	---	0.00	29.852 
04:50	68.3	68.3	68.3	95	66.8	0	0	---	0.00	29.852 
04:55	68.3	68.3	68.3	95	66.8	0	0	---	0.00	29.852 
05:00	68.3	68.3	68.3	95	66.8	0	0	---	0.00	29.853 
05:05	68.3	68.3	68.3	95	66.8	0	0	---	0.00	29.853 
05:10	68.4	68.4	68.4	95	66.9	0	0	---	0.00	29.853 
05:15	68.4	68.4	68.4	95	66.9	0	0	---	0.00	29.857 
05:20	68.6	68.6	68.6	95	67.1	0	0	---	0.00	29.857 
05:25	68.6	68.6	68.6	95	67.1	0	0	---	0.00	29.857 
05:30	68.6	68.6	68.6	95	67.1	0	0	---	0.00	29.857 
05:35	68.6	68.6	68.6	95	67.1	0	0	---	0.00	29.857 
05:40	68.6	68.6	68.6	95	67.1	0	1	45	0.00	29.857 
05:45	68.6	68.6	68.6	95	67.1	0	1	45	0.00	29.857 
05:50	68.6	68.6	68.6	95	67.1	0	1	45	0.00	29.857 
05:55	68.6	68.6	68.6	95	67.1	0	0	---	0.00	29.857 
06:00	68.6	68.6	68.6	95	67.1	0	0	---	0.00	29.861 
06:05	68.8	68.8	68.8	95	67.3	0	0	---	0.00	29.861 
06:10	68.8	68.8	68.8	95	67.3	0	1	45	0.00	29.861 
06:15	68.8	68.8	68.8	95	67.3	0	1	45	0.00	29.872 
06:20	68.8	68.8	68.8	95	67.3	0	1	45	0.00	29.872 
06:25	68.8	68.8	68.8	95	67.3	0	0	---	0.00	29.872 
06:30	68.8	68.8	68.8	95	67.3	0	0	---	0.00	29.874 
06:35	68.9	68.9	68.9	95	67.4	0	1	45	0.00	29.874 
06:40	68.9	68.9	68.9	95	67.4	0	1	45	0.00	29.874 
06:45	68.9	68.9	68.9	95	67.4	0	0	---	0.00	29.872 
06:50	68.9	68.9	68.9	95	67.4	0	0	---	0.00	29.872 
06:55	69.1	69.1	69.1	95	67.6	0	0	---	0.00	29.872 
07:00	69.1	69.1	69.1	95	67.6	0	0	---	0.00	29.873 
07:05	69.3	69.3	69.3	95	67.8	0	1	45	0.00	29.873 
07:10	69.3	69.3	69.3	95	67.8	0	0	---	0.00	29.873 
07:15	69.4	69.4	69.4	95	67.9	0	0	---	0.00	29.868 
07:20	69.6	69.6	69.6	95	68.1	0	0	---	0.00	29.868 
07:25	69.6	69.6	69.6	94	67.8	0	1	45	0.00	29.868 
07:30	69.6	69.6	69.6	94	67.8	0	1	45	0.00	29.872 
07:35	69.8	69.8	69.8	94	68.0	0	0	---	0.00	29.872 
07:40	69.9	69.9	69.9	94	68.1	0	0	---	0.00	29.872 
07:45	69.9	69.9	69.9	94	68.1	0	0	---	0.00	29.874 
07:50	70.1	70.1	70.1	94	68.3	0	1	45	0.00	29.874 
07:55	70.1	70.1	70.1	94	68.3	0	2	45	0.00	29.874 
08:00	70.1	70.1	70.1	94	68.3	0	1	45	0.00	29.874 
08:05	70.1	70.1	70.1	94	68.3	0	1	45	0.00	29.874 
08:10	70.1	70.1	70.1	94	68.3	0	1	45	0.00	29.874 
08:15	70.3	70.3	70.3	93	68.2	0	1	45	0.00	29.874 
08:20	70.3	70.3	70.3	93	68.2	0	1	45	0.00	29.874 
08:25	70.3	70.3	70.3	93	68.2	0	0	---	0.00	29.874 
08:30	70.4	70.4	70.4	93	68.3	0	1	45	0.00	29.873 
08:35	70.4	70.4	70.4	93	68.3	0	1	45	0.00	29.873 
08:40	70.8	70.8	70.8	93	68.7	0	0	---	0.00	29.873 
08:45	71.1	71.1	71.1	93	69.0	0	2	45	0.00	29.876 
08:50	71.6	71.6	71.6	92	69.1	0	2	45	0.00	29.876 
08:55	72.1	72.1	72.1	92	69.6	0	1	45	0.00	29.876 
09:00	72.3	72.3	72.3	91	69.5	0	1	45	0.00	29.879 
09:05	72.7	72.7	72.7	90	69.6	0	1	45	0.00	29.879 
09:10	72.7	72.7	72.7	89	69.3	0	2	45	0.00	29.879 
09:15	72.7	72.7	72.7	88	68.9	0	0	---	0.00	29.879 
09:20	72.7	72.7	72.7	88	68.9	0	0	---	0.00	29.879 
09:25	72.5	72.5	72.5	88	68.7	0	2	45	0.00	29.879 
09:30	72.5	72.5	72.5	88	68.7	0	3	45	0.00	29.885 
09:35	72.3	72.3	72.3	88	68.5	0	1	45	0.02	29.885 
09:40	72.1	72.1	72.1	89	68.7	0	3	45	0.00	29.885 
09:45	72.3	72.3	72.3	90	69.2	0	1	45	0.00	29.880 
09:50	72.3	72.3	72.3	91	69.5	0	1	45	0.00	29.880 
09:55	72.3	72.3	72.3	91	69.5	0	1	45	0.00	29.880 
10:00	72.3	72.3	72.3	91	69.5	0	2	45	0.00	29.874 
10:05	72.3	72.3	72.3	91	69.5	0	0	---	0.00	29.874 
10:10	72.3	72.3	72.3	91	69.5	0	3	292	0.00	29.874 
10:15	72.5	72.5	72.5	91	69.7	0	0	---	0.00	29.871 
10:20	73.0	73.0	73.0	92	70.5	0	1	292	0.00	29.871 
10:25	73.5	73.5	73.5	91	70.7	0	2	292	0.00	29.871 
10:30	73.5	73.5	73.5	90	70.4	0	1	292	0.00	29.874 
10:35	73.9	73.9	73.9	90	70.8	0	2	292	0.00	29.874 
10:40	74.2	74.2	74.2	89	70.7	0	1	292	0.00	29.874 
10:45	74.7	74.7	74.7	89	71.2	0	2	292	0.00	29.864 
10:50	75.6	75.6	75.5	88	71.8	0	2	292	0.00	29.864 
10:55	75.8	75.8	76.3	84	70.6	0	2	292	0.00	29.864 
11:00	75.6	75.6	76.1	83	70.1	1	4	292	0.00	29.867 
11:05	75.4	75.4	75.9	82	69.5	0	3	112	0.00	29.867 
11:10	75.4	75.4	75.8	83	69.9	0	2	112	0.00	29.867 
11:15	75.3	75.3	75.6	83	69.8	1	3	315	0.00	29.872 
11:20	75.1	75.1	75.3	83	69.6	0	2	315	0.00	29.872 
11:25	75.3	75.3	75.6	83	69.8	0	2	315	0.00	29.872 
11:30	75.1	75.1	75.3	83	69.6	0	4	315	0.00	29.875 
11:35	74.9	74.9	74.9	83	69.4	1	3	315	0.00	29.875 
11:40	74.9	74.9	74.9	83	69.4	0	1	315	0.00	29.875 
11:45	75.1	75.1	75.3	83	69.6	1	2	315	0.00	29.876 
11:50	75.3	75.3	75.8	82	69.4	1	4	315	0.00	29.876 
11:55	75.3	75.3	75.9	81	69.1	0	3	315	0.00	29.876 
12:00	75.3	75.3	75.9	81	69.1	0	1	315	0.00	29.872 
12:05	75.3	75.3	75.9	81	69.1	0	1	315	0.00	29.872 
12:10	75.4	75.4	75.9	82	69.5	0	1	315	0.00	29.872 
12:15	75.8	75.8	76.6	81	69.5	0	2	315	0.00	29.870 
12:20	76.3	76.3	77.4	81	70.0	0	2	315	0.00	29.870 
12:25	76.8	76.8	78.3	79	69.8	0	2	315	0.00	29.870 
12:30	77.2	77.2	78.9	78	69.8	0	3	315	0.00	29.868 
12:35	77.4	77.4	79.3	77	69.6	0	1	292	0.00	29.868 
12:40	77.4	77.4	79.3	76	69.2	1	4	270	0.00	29.868 
12:45	77.2	77.2	79.0	76	69.0	0	2	270	0.00	29.869 
12:50	77.2	77.2	79.0	77	69.4	0	2	270	0.00	29.869 
12:55	77.2	77.2	79.0	77	69.4	0	2	270	0.00	29.869 
13:00	77.2	77.2	78.9	78	69.8	0	1	270	0.00	29.868 
13:05	77.2	77.2	79.0	77	69.4	0	2	270	0.01	29.868 
13:10	77.4	77.4	79.3	78	70.0	0	2	270	0.00	29.868 
13:15	77.6	77.6	79.6	78	70.2	0	1	270	0.00	29.867 
13:20	77.6	77.6	79.6	78	70.2	0	1	270	0.00	29.867 
13:25	77.4	77.4	79.3	77	69.6	0	2	270	0.00	29.867 
13:30	77.2	77.2	79.0	77	69.4	0	1	270	0.00	29.868 
13:35	77.4	77.4	79.3	79	70.4	0	0	---	0.00	29.868 
13:40	77.6	77.6	79.6	77	69.8	1	3	270	0.00	29.868 
13:45	77.7	77.7	79.7	77	69.9	0	1	270	0.00	29.866 
13:50	77.7	77.7	79.7	76	69.5	1	2	270	0.00	29.866 
13:55	77.9	77.9	80.0	76	69.7	0	2	270	0.00	29.866 
14:00	77.9	77.9	80.0	76	69.7	0	2	270	0.00	29.860 
14:05	78.1	78.1	80.4	76	69.9	0	2	270	0.00	29.860 
14:10	78.6	78.6	81.1	75	70.0	0	1	270	0.00	29.860 
14:15	78.8	78.8	81.4	74	69.8	1	3	292	0.00	29.854 
14:20	79.0	79.0	81.6	73	69.6	2	5	292	0.00	29.854 
14:25	79.2	79.2	82.0	73	69.8	1	3	292	0.00	29.854 
14:30	79.9	79.9	83.1	73	70.4	1	3	292	0.00	29.852 
14:35	80.3	80.3	83.4	70	69.6	1	3	292	0.00	29.852 
14:40	79.9	79.9	82.7	69	68.8	1	4	292	0.00	29.852 
14:45	79.4	79.4	82.0	70	68.7	1	3	292	0.00	29.850 
14:50	79.0	79.0	81.5	71	68.8	0	1	292	0.00	29.850 
14:55	78.8	78.8	81.3	72	69.0	0	1	292	0.00	29.850 
15:00	78.6	78.6	81.0	73	69.2	0	1	292	0.00	29.843 
15:05	78.6	78.6	81.1	75	70.0	0	2	292	0.00	29.843 
15:10	78.3	78.3	80.6	75	69.7	0	2	292	0.00	29.843 
15:15	77.9	77.9	80.1	77	70.1	0	2	292	0.00	29.842 
15:20	77.6	77.6	79.6	77	69.8	0	2	292	0.00	29.842 
15:25	77.4	77.4	79.3	79	70.4	0	1	292	0.00	29.842 
15:30	77.4	77.4	79.3	79	70.4	0	1	292	0.00	29.842 
15:35	77.2	77.2	78.9	79	70.2	0	2	292	0.00	29.842 
15:40	76.8	76.8	78.2	80	70.1	1	3	292	0.00	29.842 
15:45	76.7	76.7	78.0	81	70.4	0	2	292	0.00	29.852 
15:50	76.3	76.3	77.2	83	70.7	0	1	292	0.01	29.852 
15:55	76.0	76.0	76.7	84	70.8	0	1	292	0.00	29.852 
16:00	75.6	75.6	75.9	85	70.8	0	1	292	0.00	29.845 
16:05	75.3	75.3	75.2	86	70.8	0	1	292	0.01	29.845 
16:10	74.9	74.9	74.9	87	70.8	0	1	292	0.01	29.845 
16:15	74.7	74.7	74.7	88	70.9	0	0	---	0.00	29.846 
16:20	74.6	74.6	74.6	88	70.8	0	0	---	0.01	29.846 
16:25	74.6	74.6	74.6	89	71.1	0	1	292	0.00	29.846 
16:30	74.4	74.4	74.4	89	70.9	0	0	---	0.00	29.858 
16:35	74.2	74.2	74.2	89	70.7	0	1	292	0.01	29.858 
16:40	74.0	74.0	74.0	90	70.9	0	0	---	0.00	29.858 
16:45	73.9	73.9	73.9	90	70.8	0	0	---	0.01	29.857 
16:50	73.7	73.7	73.7	90	70.6	0	0	---	0.00	29.857 
16:55	73.5	73.5	73.5	90	70.4	0	0	---	0.00	29.857 
17:00	73.5	73.5	73.5	91	70.7	0	0	---	0.01	29.852 
17:05	73.5	73.5	73.5	91	70.7	0	1	292	0.00	29.852 
17:10	73.3	73.3	73.3	91	70.5	0	0	---	0.01	29.852 
17:15	73.0	73.0	73.0	91	70.2	0	1	292	0.00	29.843 
17:20	72.8	72.8	72.8	91	70.0	0	0	---	0.00	29.843 
17:25	72.8	72.8	72.8	91	70.0	0	1	292	0.00	29.843 
17:30	72.7	72.7	72.7	91	69.9	0	0	---	0.00	29.841 
17:35	72.8	72.8	72.8	91	70.0	0	0	---	0.00	29.841 
17:40	72.8	72.8	72.8	91	70.0	0	0	---	0.00	29.841 
17:45	72.8	72.8	72.8	91	70.0	0	0	---	0.00	29.842 
17:50	73.0	73.0	73.0	92	70.5	0	0	---	0.00	29.842 
17:55	73.0	73.0	73.0	92	70.5	0	0	---	0.00	29.842 
18:00	73.0	73.0	73.0	92	70.5	0	0	---	0.00	29.840 
18:05	73.0	73.0	73.0	92	70.5	0	0	---	0.00	29.840 
18:10	73.2	73.2	73.2	92	70.7	0	0	---	0.00	29.840 
18:15	73.2	73.2	73.2	92	70.7	0	0	---	0.00	29.829 
18:20	73.0	73.0	73.0	91	70.2	0	0	---	0.00	29.829 
18:25	73.0	73.0	73.0	91	70.2	0	0	---	0.00	29.829 
18:30	73.0	73.0	73.0	91	70.2	0	0	---	0.00	29.827 
18:35	73.0	73.0	73.0	91	70.2	0	0	---	0.00	29.827 
18:40	73.0	73.0	73.0	91	70.2	0	0	---	0.00	29.827 
18:45	73.2	73.2	73.2	91	70.4	0	0	---	0.00	29.828 
18:50	73.2	73.2	73.2	91	70.4	0	0	---	0.00	29.828 
18:55	73.2	73.2	73.2	91	70.4	0	0	---	0.00	29.828 
19:00	73.2	73.2	73.2	91	70.4	0	0	---	0.00	29.835 
19:05	73.3	73.3	73.3	91	70.5	0	0	---	0.00	29.835 
19:10	73.3	73.3	73.3	91	70.5	0	0	---	0.00	29.835 
19:15	73.5	73.5	73.5	91	70.7	0	0	---	0.00	29.834 
19:20	73.3	73.3	73.3	91	70.5	0	1	292	0.00	29.834 
19:25	73.5	73.5	73.5	91	70.7	0	0	---	0.00	29.834 
19:30	73.5	73.5	73.5	91	70.7	0	0	---	0.00	29.834 
19:35	73.5	73.5	73.5	91	70.7	0	0	---	0.00	29.834 
19:40	73.3	73.3	73.3	91	70.5	0	0	---	0.00	29.834 
19:45	73.3	73.3	73.3	90	70.2	0	1	292	0.00	29.839 
19:50	73.3	73.3	73.3	90	70.2	0	1	292	0.00	29.839 
19:55	73.3	73.3	73.3	91	70.5	0	0	---	0.00	29.839 
20:00	73.5	73.5	73.5	91	70.7	0	0	---	0.00	29.840 
20:05	73.5	73.5	73.5	91	70.7	0	0	---	0.00	29.840 
20:10	73.5	73.5	73.5	91	70.7	0	1	292	0.00	29.840 
20:15	73.5	73.5	73.5	91	70.7	0	0	---	0.00	29.836 
20:20	73.3	73.3	73.3	91	70.5	0	0	---	0.00	29.836 
20:25	73.2	73.2	73.2	91	70.4	0	1	292	0.00	29.836 
20:30	73.0	73.0	73.0	91	70.2	0	2	292	0.00	29.840 
20:35	72.8	72.8	72.8	91	70.0	0	1	292	0.00	29.840 
20:40	72.8	72.8	72.8	91	70.0	0	1	292	0.00	29.840 
20:45	72.8	72.8	72.8	92	70.3	0	1	292	0.00	29.839 
20:50	72.7	72.7	72.7	92	70.2	0	2	292	0.00	29.839 
20:55	72.5	72.5	72.5	92	70.0	0	1	292	0.00	29.839 
21:00	72.3	72.3	72.3	92	69.8	0	1	292	0.00	29.839 
21:05	72.1	72.1	72.1	92	69.6	0	1	292	0.00	29.839 
21:10	71.8	71.8	71.8	92	69.3	0	1	292	0.00	29.839 
21:15	71.8	71.8	71.8	92	69.3	0	2	292	0.00	29.842 
21:20	71.6	71.6	71.6	92	69.1	0	1	292	0.00	29.842 
21:25	71.5	71.5	71.5	92	69.0	0	1	292	0.00	29.842 
21:30	71.3	71.3	71.3	92	68.8	0	1	292	0.00	29.842 
21:35	71.1	71.1	71.1	92	68.7	0	1	292	0.00	29.842 
21:40	70.9	70.9	70.9	92	68.5	0	0	---	0.00	29.842 
21:45	70.9	70.9	70.9	92	68.5	0	0	---	0.00	29.843 
21:50	70.8	70.8	70.8	92	68.4	0	0	---	0.00	29.843 
21:55	70.6	70.6	70.6	93	68.5	0	0	---	0.00	29.843 
22:00	70.4	70.4	70.4	93	68.3	0	0	---	0.00	29.845 
22:05	70.3	70.3	70.3	93	68.2	0	0	---	0.00	29.845 
22:10	70.3	70.3	70.3	93	68.2	0	0	---	0.00	29.845 
22:15	70.3	70.3	70.3	93	68.2	0	0	---	0.00	29.842 
22:20	70.1	70.1	70.1	93	68.0	0	0	---	0.00	29.842 
22:25	70.1	70.1	70.1	93	68.0	0	0	---	0.00	29.842 
22:30	69.9	69.9	69.9	93	67.8	0	0	---	0.00	29.848 
22:35	69.8	69.8	69.8	93	67.7	0	0	---	0.00	29.848 
22:40	69.8	69.8	69.8	93	67.7	0	0	---	0.00	29.848 
22:45	69.6	69.6	69.6	93	67.5	0	0	---	0.00	29.850 
22:50	69.6	69.6	69.6	93	67.5	0	0	---	0.00	29.850 
22:55	69.4	69.4	69.4	93	67.3	0	0	---	0.00	29.850 
23:00	69.4	69.4	69.4	93	67.3	0	0	---	0.00	29.852 
23:05	69.3	69.3	69.3	93	67.2	0	0	---	0.00	29.852 
23:10	69.3	69.3	69.3	93	67.2	0	0	---	0.00	29.852 
23:15	69.1	69.1	69.1	93	67.0	0	0	---	0.00	29.849 
23:20	69.1	69.1	69.1	93	67.0	0	0	---	0.00	29.849 
23:25	68.9	68.9	68.9	94	67.1	0	0	---	0.00	29.849 
23:30	68.9	68.9	68.9	94	67.1	0	0	---	0.00	29.844 
23:35	68.9	68.9	68.9	94	67.1	0	0	---	0.00	29.844 
23:40	68.9	68.9	68.9	94	67.1	0	0	---	0.00	29.844 
23:45	68.9	68.9	68.9	94	67.1	0	0	---	0.00	29.844 
23:50	68.8	68.8	68.8	94	67.0	0	0	---	0.00	29.844 
23:55	68.8	68.8	68.8	94	67.0	0	0	---	0.00	29.844 

CoCoRaHS
IN-AL-39
A2 Web Hosting
Creative Commons License
GoDaddy
search engine by freefind advanced

loaded 2018-11-17 11:54:01 • last modified 2010-11-18 10:43:29
Privacy PolicyDisclaimer
• wx.awcolley.com is powered by PmWiki v.2002016 •
• all content (unless otherwise noted) © 2018 A W Colley